Flight Number: EUR2042 Duration: 4:00
Departure: Madeira Funchal (LPMA) at 18:15 Distance: 1594 Nm
Arrival: Munich Int'l (EDDM) at 22:15 Equipment: B737

Weather Information
Aeroporto Da Madeira, Portugal (LPMA) 32-41-52N 016-46-28W Sep 21, 2017 - 05:00 PM EDT / 2017.09.21 2100 UTC
Wind: from the N (010 degrees) at 10 MPH (9 KT) (direction variable):0
Visibility: greater than 7 mile(s):0
Sky conditions: mostly clear Temperature: 71 F (22 C) Dew Point: 59 F (15 C) Relative Humidity: 64% Pressure (altimeter): 30.15 in. Hg (1021 hPa)
ob: LPMA 212100Z 01009KT 330V040 9999 FEW016 22/15 Q1021 cycle: 21
Sunrise: 06:57 Sunset: 19:02 (UTC)

Munchen, Germany (EDDM) 48-21N 011-47E Sep 21, 2017 - 04:50 PM EDT / 2017.09.21 2050 UTC
Wind: Variable at 2 MPH (2 KT):0
Visibility: greater than 7 mile(s):0 Weather: shallow fog Temperature: 42 F (6 C) Dew Point: 41 F (5 C) Relative Humidity: 93% Pressure (altimeter): 30.15 in. Hg (1021 hPa)
ob: EDDM 212050Z VRB02KT 9999 MIFG NSC 06/05 Q1021 NOSIG cycle: 21
Sunrise: 05:02 Sunset: 17:08 (UTC)

TAF:2017/09/21 18:27 TAF EDDM 211700Z 2118/2224 VRB03KT CAVOK TEMPO 2200/2208 2000 BCFG PROB30 TEMPO 2202/2207 0400 FG TEMPO 2223/2224 2000 BCFG

Previous Pireps for this route
Date Aircraft Flight time Fuel used Landing rate On time
2013-01-31B7373.54294480Yes
2013-07-23B73704.1835863-354No
2013-09-15B7374.04277000No
2014-10-20B7374.5125321-222No
2015-03-14B73704.2525118-384Yes
2016-01-18B73704.12-59-161Charter
2017-01-20B73704.0922227-285Charter
(pireps marked green are flown by you)

Route map